createdAt,value
2018-06-30T00:00:46.316Z,86.40
2018-06-30T00:03:14.978Z,86.80
2018-06-30T00:05:43.476Z,86.90
2018-06-30T00:08:12.043Z,87.00
2018-06-30T00:10:40.567Z,87.50
2018-06-30T00:13:09.119Z,87.70
2018-06-30T00:15:37.636Z,88.20
2018-06-30T00:20:34.463Z,88.40
2018-06-30T00:23:03.039Z,88.20
2018-06-30T00:25:31.546Z,88.20
2018-06-30T00:28:00.071Z,88.10
2018-06-30T00:30:28.655Z,88.00
2018-06-30T00:32:57.369Z,88.20
2018-06-30T00:35:25.927Z,87.70
2018-06-30T00:37:54.427Z,87.60
2018-06-30T00:40:22.987Z,87.50
2018-06-30T00:42:51.494Z,87.40
2018-06-30T00:45:20.766Z,87.70
2018-06-30T00:47:49.279Z,87.80
2018-06-30T00:50:18.711Z,87.80
2018-06-30T00:52:47.785Z,88.00
2018-06-30T00:55:16.347Z,88.00
2018-06-30T00:57:44.886Z,88.50
2018-06-30T01:02:41.671Z,88.70
2018-06-30T01:05:10.194Z,88.70
2018-06-30T01:07:38.758Z,88.80
2018-06-30T01:10:07.331Z,88.60
2018-06-30T01:12:35.918Z,89.10
2018-06-30T01:15:04.563Z,88.90
2018-06-30T01:17:33.099Z,88.70
2018-06-30T01:20:01.607Z,88.80
2018-06-30T01:22:30.166Z,88.60
2018-06-30T01:24:58.707Z,88.70
2018-06-30T01:27:27.224Z,88.40
2018-06-30T01:29:55.779Z,88.30
2018-06-30T01:32:24.301Z,88.00
2018-06-30T01:34:52.842Z,87.80
2018-06-30T01:37:21.359Z,87.90
2018-06-30T01:39:50.788Z,87.80
2018-06-30T01:42:19.914Z,87.70
2018-06-30T01:44:49.011Z,87.40
2018-06-30T01:47:17.989Z,87.20
2018-06-30T01:49:46.534Z,86.60
2018-06-30T01:52:15.039Z,86.20
2018-06-30T01:54:43.627Z,85.80
2018-06-30T01:57:12.123Z,85.80
2018-06-30T02:04:37.295Z,85.20
2018-06-30T02:07:06.078Z,85.20
2018-06-30T02:09:34.639Z,85.30
2018-06-30T02:12:03.215Z,85.40
2018-06-30T02:14:31.782Z,85.30
2018-06-30T02:21:56.933Z,85.40
2018-06-30T02:26:53.776Z,85.50
2018-06-30T02:29:22.287Z,85.60
2018-06-30T02:31:51.810Z,86.20
2018-06-30T02:34:21.499Z,86.40
2018-06-30T02:36:51.076Z,86.50
2018-06-30T02:39:20.243Z,86.60
2018-06-30T02:41:49.374Z,86.90
2018-06-30T02:46:47.277Z,88.00
2018-06-30T02:49:15.839Z,88.30
2018-06-30T02:54:12.663Z,89.10
2018-06-30T02:56:41.256Z,89.50
2018-06-30T02:59:09.811Z,89.70
2018-06-30T03:01:38.338Z,90.10
2018-06-30T03:04:06.858Z,90.30
2018-06-30T03:06:35.407Z,90.40
2018-06-30T03:11:32.972Z,90.10
2018-06-30T03:14:01.499Z,90.10
2018-06-30T03:16:30.052Z,90.00
2018-06-30T03:21:26.851Z,89.60
2018-06-30T03:23:55.455Z,89.20
2018-06-30T03:26:23.966Z,88.80
2018-06-30T03:28:52.538Z,88.20
2018-06-30T03:31:22.491Z,88.20
2018-06-30T03:33:51.767Z,87.60
2018-06-30T03:38:50.641Z,86.80
2018-06-30T03:41:19.870Z,86.40
2018-06-30T03:43:48.756Z,86.00
2018-06-30T03:46:17.404Z,85.80
2018-06-30T03:48:45.946Z,85.40
2018-06-30T03:51:14.515Z,85.40
2018-06-30T03:58:39.569Z,84.60
2018-06-30T04:01:08.117Z,84.30
2018-06-30T04:03:36.663Z,83.90
2018-06-30T04:06:05.255Z,83.40
2018-06-30T04:08:33.806Z,83.30
2018-06-30T04:11:02.319Z,83.20
2018-06-30T04:13:30.883Z,83.00
2018-06-30T04:15:59.391Z,82.60
2018-06-30T04:18:27.943Z,82.70
2018-06-30T04:20:56.436Z,82.00
2018-06-30T04:23:24.954Z,82.00
2018-06-30T04:25:53.503Z,80.30
2018-06-30T04:28:22.101Z,80.70
2018-06-30T04:30:51.644Z,80.30
2018-06-30T04:35:50.152Z,78.00
2018-06-30T04:40:47.615Z,76.50
2018-06-30T04:45:44.454Z,76.10
2018-06-30T04:48:13.024Z,74.90
2018-06-30T04:50:41.560Z,74.30
2018-06-30T04:53:10.171Z,73.60
2018-06-30T04:55:38.670Z,73.10
2018-06-30T04:58:07.301Z,73.80
2018-06-30T05:03:04.035Z,70.90
2018-06-30T05:05:32.575Z,69.20
2018-06-30T05:08:01.150Z,68.00
2018-06-30T05:10:29.698Z,66.30
2018-06-30T05:15:26.565Z,65.00
2018-06-30T05:20:23.352Z,63.90
2018-06-30T05:22:51.855Z,63.60
2018-06-30T05:25:20.424Z,62.90
2018-06-30T05:27:49.430Z,62.10
2018-06-30T05:30:18.377Z,61.00
2018-06-30T05:32:47.004Z,61.00
2018-06-30T05:35:15.692Z,60.50
2018-06-30T05:37:44.218Z,60.30
2018-06-30T05:42:41.267Z,59.90
2018-06-30T05:45:09.971Z,60.10
2018-06-30T05:50:06.861Z,60.70
2018-06-30T05:52:35.379Z,59.20
2018-06-30T05:55:04.136Z,59.20
2018-06-30T05:57:32.664Z,59.20
2018-06-30T06:00:01.240Z,58.80
2018-06-30T06:02:29.797Z,59.30
2018-06-30T06:04:58.362Z,58.60
2018-06-30T06:07:26.919Z,57.20
2018-06-30T06:09:55.528Z,56.50
2018-06-30T06:12:24.171Z,53.90
2018-06-30T06:19:50.380Z,55.60
2018-06-30T06:22:19.347Z,56.10
2018-06-30T06:24:47.919Z,56.00
2018-06-30T06:27:16.593Z,55.10
2018-06-30T06:32:14.611Z,53.30
2018-06-30T06:34:43.165Z,52.50
2018-06-30T06:39:40.066Z,54.20
2018-06-30T06:42:08.597Z,53.70
2018-06-30T06:47:05.677Z,51.60
2018-06-30T06:52:03.150Z,51.10
2018-06-30T06:54:32.951Z,50.60
2018-06-30T06:59:30.835Z,49.60
2018-06-30T07:04:28.418Z,46.30
2018-06-30T07:09:25.305Z,48.60
2018-06-30T07:11:54.744Z,48.00
2018-06-30T07:16:51.590Z,48.00
2018-06-30T07:19:20.178Z,47.70
2018-06-30T07:21:48.768Z,47.20
2018-06-30T07:24:18.771Z,46.90
2018-06-30T07:26:48.572Z,47.30
2018-06-30T07:29:18.233Z,46.20
2018-06-30T07:34:16.018Z,46.40
2018-06-30T07:39:13.793Z,44.90
2018-06-30T07:41:42.459Z,46.10
2018-06-30T07:44:11.099Z,45.30
2018-06-30T07:46:39.805Z,43.40
2018-06-30T07:49:08.331Z,43.60
2018-06-30T07:54:05.254Z,43.60
2018-06-30T07:56:33.826Z,43.60
2018-06-30T07:59:02.360Z,40.80
2018-06-30T08:06:27.647Z,42.80
2018-06-30T08:08:56.159Z,42.10
2018-06-30T08:11:24.717Z,42.20
2018-06-30T08:13:53.775Z,40.20
2018-06-30T08:16:22.355Z,38.50
2018-06-30T08:18:50.920Z,38.50
2018-06-30T08:23:48.494Z,37.60
2018-06-30T08:26:18.082Z,37.70
2018-06-30T08:28:47.781Z,37.30
2018-06-30T08:31:17.164Z,37.80
2018-06-30T08:33:46.241Z,37.50
2018-06-30T08:36:15.936Z,36.70
2018-06-30T08:38:45.083Z,37.00
2018-06-30T08:41:13.694Z,36.10
2018-06-30T08:43:42.370Z,35.70
2018-06-30T08:46:11.032Z,36.50
2018-06-30T08:48:39.618Z,35.50
2018-06-30T08:51:08.245Z,36.20
2018-06-30T08:53:36.996Z,34.20
2018-06-30T08:56:05.547Z,35.30
2018-06-30T08:58:34.152Z,34.70
2018-06-30T09:01:03.262Z,34.50
2018-06-30T09:03:31.853Z,34.60
2018-06-30T09:06:00.418Z,35.10
2018-06-30T09:08:29.053Z,34.10
2018-06-30T09:10:57.672Z,32.80
2018-06-30T09:13:26.618Z,33.70
2018-06-30T09:18:23.542Z,34.70
2018-06-30T09:20:52.153Z,36.40
2018-06-30T09:23:20.688Z,38.10
2018-06-30T09:25:49.406Z,37.50
2018-06-30T09:28:19.166Z,37.30
2018-06-30T09:30:47.822Z,36.80
2018-06-30T09:35:46.629Z,38.00
2018-06-30T09:40:44.167Z,36.80
2018-06-30T09:43:12.692Z,36.50
2018-06-30T09:50:37.773Z,38.10
2018-06-30T09:53:06.339Z,39.00
2018-06-30T09:55:34.987Z,39.50
2018-06-30T09:58:03.720Z,39.50
2018-06-30T10:00:39.454Z,39.60
2018-06-30T10:03:08.360Z,39.20
2018-06-30T10:05:38.033Z,39.20
2018-06-30T10:10:34.868Z,39.10
2018-06-30T10:13:03.460Z,39.00
2018-06-30T10:15:33.270Z,39.50
2018-06-30T10:18:03.200Z,39.80
2018-06-30T10:20:32.754Z,40.60
2018-06-30T10:23:02.254Z,39.30
2018-06-30T10:25:31.728Z,40.40
2018-06-30T10:28:00.911Z,40.80
2018-06-30T10:32:57.850Z,39.50
2018-06-30T10:35:26.476Z,39.60
2018-06-30T10:37:55.078Z,39.70
2018-06-30T10:40:23.635Z,39.10
2018-06-30T10:42:52.227Z,40.60
2018-06-30T10:45:21.026Z,39.30
2018-06-30T10:47:49.694Z,38.40
2018-06-30T10:50:18.217Z,38.60
2018-06-30T10:52:46.889Z,38.90
2018-06-30T10:55:15.551Z,38.80
2018-06-30T10:57:44.223Z,40.10
2018-06-30T11:02:42.191Z,39.50
2018-06-30T11:05:12.071Z,40.10
2018-06-30T11:07:40.876Z,40.10
2018-06-30T11:10:09.960Z,39.90
2018-06-30T11:12:38.904Z,39.50
2018-06-30T11:17:35.739Z,38.70
2018-06-30T11:20:04.701Z,38.70
2018-06-30T11:22:33.691Z,37.90
2018-06-30T11:25:03.295Z,38.70
2018-06-30T11:27:31.838Z,39.30
2018-06-30T11:30:00.878Z,39.80
2018-06-30T11:32:29.431Z,38.70
2018-06-30T11:34:58.157Z,39.10
2018-06-30T11:37:26.704Z,39.10
2018-06-30T11:39:55.291Z,39.60
2018-06-30T11:42:23.891Z,39.90
2018-06-30T11:44:52.448Z,38.90
2018-06-30T11:47:21.009Z,39.50
2018-06-30T11:49:49.532Z,38.10
2018-06-30T11:52:18.046Z,38.00
2018-06-30T11:54:46.574Z,38.30
2018-06-30T11:57:15.167Z,38.10
2018-06-30T11:59:43.703Z,39.20
2018-06-30T12:04:40.572Z,39.40
2018-06-30T12:07:09.128Z,40.00
2018-06-30T12:09:37.642Z,40.50
2018-06-30T12:12:06.180Z,40.90
2018-06-30T12:14:34.718Z,40.10
2018-06-30T12:17:03.302Z,40.60
2018-06-30T12:19:33.031Z,39.50
2018-06-30T12:22:03.049Z,39.40
2018-06-30T12:24:32.828Z,39.10
2018-06-30T12:27:02.237Z,39.10
2018-06-30T12:29:31.361Z,39.60
2018-06-30T12:32:01.352Z,39.20
2018-06-30T12:34:30.364Z,39.00
2018-06-30T12:36:58.912Z,38.40
2018-06-30T12:41:55.734Z,38.10
2018-06-30T12:44:24.295Z,37.30
2018-06-30T12:46:52.867Z,37.50
2018-06-30T12:49:21.374Z,37.50
2018-06-30T12:51:49.941Z,37.50
2018-06-30T12:54:18.479Z,37.40
2018-06-30T12:56:47.071Z,36.80
2018-06-30T13:04:12.136Z,38.00
2018-06-30T13:06:40.673Z,38.90
2018-06-30T13:11:38.848Z,37.90
2018-06-30T13:14:07.834Z,38.20
2018-06-30T13:16:37.047Z,39.70
2018-06-30T13:19:05.810Z,39.20
2018-06-30T13:21:34.436Z,38.50
2018-06-30T13:24:03.876Z,37.40
2018-06-30T13:26:33.517Z,37.40
2018-06-30T13:29:02.815Z,37.40
2018-06-30T13:31:32.295Z,38.80
2018-06-30T13:34:01.633Z,38.90
2018-06-30T13:36:31.053Z,38.30
2018-06-30T13:41:28.094Z,36.60
2018-06-30T13:43:56.640Z,34.80
2018-06-30T13:46:25.409Z,35.40
2018-06-30T13:48:53.991Z,35.20
2018-06-30T13:51:22.591Z,36.70
2018-06-30T13:53:51.120Z,35.40
2018-06-30T13:56:19.666Z,33.50
2018-06-30T13:58:48.243Z,34.10
2018-06-30T14:01:16.826Z,34.90
2018-06-30T14:03:45.434Z,36.70
2018-06-30T14:06:14.075Z,35.00
2018-06-30T14:08:42.628Z,33.90
2018-06-30T14:13:39.426Z,34.40
2018-06-30T14:16:07.980Z,35.80
2018-06-30T14:18:36.554Z,35.00
2018-06-30T14:21:05.184Z,35.10
2018-06-30T14:23:34.352Z,34.90
2018-06-30T14:26:02.907Z,35.10
2018-06-30T14:28:31.852Z,36.20
2018-06-30T14:33:28.660Z,36.60
2018-06-30T14:35:57.216Z,37.10
2018-06-30T14:38:25.795Z,38.20
2018-06-30T14:40:54.359Z,38.10
2018-06-30T14:43:22.944Z,37.70
2018-06-30T14:45:51.491Z,36.40
2018-06-30T14:53:16.628Z,36.70
2018-06-30T14:55:45.245Z,36.50
2018-06-30T14:58:13.840Z,36.70
2018-06-30T15:00:42.408Z,37.50
2018-06-30T15:03:10.992Z,37.70
2018-06-30T15:05:39.583Z,37.90
2018-06-30T15:08:08.119Z,38.30
2018-06-30T15:13:05.743Z,38.80
2018-06-30T15:15:35.557Z,39.00
2018-06-30T15:18:05.228Z,38.30
2018-06-30T15:20:34.562Z,38.10
2018-06-30T15:23:04.251Z,38.20
2018-06-30T15:25:33.269Z,37.60
2018-06-30T15:28:02.373Z,36.30
2018-06-30T15:30:30.923Z,36.50
2018-06-30T15:32:59.488Z,36.40
2018-06-30T15:35:28.055Z,36.70
2018-06-30T15:37:56.588Z,37.10
2018-06-30T15:40:25.199Z,37.20
2018-06-30T15:42:53.751Z,37.30
2018-06-30T15:45:22.328Z,38.50
2018-06-30T15:47:50.945Z,38.50
2018-06-30T15:50:19.488Z,38.70
2018-06-30T15:52:48.023Z,39.50
2018-06-30T15:55:16.567Z,39.30
2018-06-30T15:57:45.155Z,39.80
2018-06-30T16:00:13.711Z,39.80
2018-06-30T16:02:42.267Z,40.00
2018-06-30T16:07:39.057Z,39.20
2018-06-30T16:10:07.621Z,39.90
2018-06-30T16:12:36.204Z,39.40
2018-06-30T16:15:05.092Z,38.80
2018-06-30T16:17:34.736Z,39.40
2018-06-30T16:20:04.303Z,39.80
2018-06-30T16:25:02.656Z,39.60
2018-06-30T16:27:31.650Z,39.60
2018-06-30T16:30:00.274Z,39.20
2018-06-30T16:34:57.073Z,38.80
2018-06-30T16:37:25.614Z,38.50
2018-06-30T16:39:54.336Z,38.60
2018-06-30T16:42:22.943Z,38.50
2018-06-30T16:44:51.486Z,39.60
2018-06-30T16:47:20.209Z,39.80
2018-06-30T16:49:48.765Z,38.70
2018-06-30T16:52:17.293Z,39.70
2018-06-30T16:54:45.859Z,39.40
2018-06-30T16:57:14.403Z,39.60
2018-06-30T16:59:42.959Z,40.20
2018-06-30T17:04:39.844Z,40.70
2018-06-30T17:07:08.419Z,40.80
2018-06-30T17:09:36.940Z,40.70
2018-06-30T17:12:05.511Z,41.40
2018-06-30T17:14:34.056Z,40.60
2018-06-30T17:17:03.343Z,38.80
2018-06-30T17:19:31.939Z,38.80
2018-06-30T17:24:29.015Z,37.10
2018-06-30T17:26:57.755Z,36.30
2018-06-30T17:29:26.331Z,37.40
2018-06-30T17:31:54.899Z,37.20
2018-06-30T17:34:23.460Z,35.40
2018-06-30T17:36:52.907Z,35.70
2018-06-30T17:39:21.532Z,35.70
2018-06-30T17:41:50.098Z,36.50
2018-06-30T17:46:46.899Z,37.90
2018-06-30T17:49:15.473Z,37.20
2018-06-30T17:51:44.022Z,37.10
2018-06-30T17:56:41.006Z,38.40
2018-06-30T17:59:09.796Z,38.50
2018-06-30T18:01:38.361Z,38.40
2018-06-30T18:06:35.199Z,38.20
2018-06-30T18:09:04.221Z,38.30
2018-06-30T18:11:32.743Z,39.20
2018-06-30T18:14:01.293Z,39.50
2018-06-30T18:16:30.473Z,39.10
2018-06-30T18:18:59.108Z,39.20
2018-06-30T18:21:27.633Z,39.10
2018-06-30T18:23:56.284Z,39.70
2018-06-30T18:26:24.835Z,37.90
2018-06-30T18:28:53.434Z,37.90
2018-06-30T18:31:22.001Z,37.90
2018-06-30T18:33:50.687Z,38.50
2018-06-30T18:36:19.372Z,39.00
2018-06-30T18:38:47.911Z,38.80
2018-06-30T18:41:16.568Z,38.80
2018-06-30T18:43:45.285Z,38.90
2018-06-30T18:46:13.823Z,38.90
2018-06-30T18:48:42.470Z,39.50
2018-06-30T18:56:07.904Z,40.60
2018-06-30T19:01:04.776Z,41.40
2018-06-30T19:06:02.797Z,42.00
2018-06-30T19:08:31.331Z,42.40
2018-06-30T19:10:59.988Z,42.60
2018-06-30T19:13:28.553Z,43.20
2018-06-30T19:15:57.136Z,43.20
2018-06-30T19:18:25.856Z,43.60
2018-06-30T19:20:54.523Z,44.00
2018-06-30T19:23:23.067Z,44.40
2018-06-30T19:25:51.600Z,44.60
2018-06-30T19:28:20.108Z,45.30
2018-06-30T19:35:45.252Z,46.50
2018-06-30T19:38:13.783Z,46.70
2018-06-30T19:40:42.321Z,47.20
2018-06-30T19:43:10.878Z,48.50
2018-06-30T19:45:39.408Z,48.10
2018-06-30T19:48:08.237Z,49.10
2018-06-30T19:50:37.192Z,48.50
2018-06-30T19:53:06.204Z,48.50
2018-06-30T19:55:35.374Z,48.50
2018-06-30T19:58:04.224Z,49.50
2018-06-30T20:00:33.085Z,49.80
2018-06-30T20:03:01.705Z,50.20
2018-06-30T20:07:58.720Z,51.70
2018-06-30T20:10:27.307Z,51.80
2018-06-30T20:12:55.876Z,53.30
2018-06-30T20:15:24.564Z,54.00
2018-06-30T20:17:53.755Z,55.20
2018-06-30T20:20:22.648Z,56.10
2018-06-30T20:22:51.394Z,57.10
2018-06-30T20:27:48.752Z,58.80
2018-06-30T20:37:43.465Z,63.60
2018-06-30T20:40:13.095Z,64.30
2018-06-30T20:42:42.670Z,65.20
2018-06-30T20:45:11.871Z,66.30
2018-06-30T20:47:41.069Z,67.70
2018-06-30T20:50:10.303Z,68.90
2018-06-30T20:55:07.800Z,71.10
2018-06-30T20:57:36.540Z,71.00
2018-06-30T21:00:05.570Z,72.10
2018-06-30T21:05:02.435Z,73.60
2018-06-30T21:07:31.004Z,73.60
2018-06-30T21:12:27.809Z,74.60
2018-06-30T21:14:56.410Z,74.90
2018-06-30T21:17:24.986Z,75.30
2018-06-30T21:19:53.536Z,76.30
2018-06-30T21:22:22.127Z,76.70
2018-06-30T21:24:50.808Z,77.40
2018-06-30T21:27:19.369Z,78.30
2018-06-30T21:32:16.255Z,79.50
2018-06-30T21:34:44.808Z,80.50
2018-06-30T21:37:13.417Z,80.90
2018-06-30T21:39:41.949Z,81.70
2018-06-30T21:42:10.507Z,82.30
2018-06-30T21:44:39.079Z,83.30
2018-06-30T21:47:07.888Z,83.90
2018-06-30T21:49:36.406Z,84.40
2018-06-30T21:57:01.603Z,85.40
2018-06-30T21:59:30.138Z,85.80
2018-06-30T22:01:58.721Z,86.30
2018-06-30T22:06:55.885Z,86.80
2018-06-30T22:11:52.815Z,87.70
2018-06-30T22:14:21.376Z,87.90
2018-06-30T22:16:49.966Z,88.10
2018-06-30T22:19:18.559Z,88.60
2018-06-30T22:21:47.166Z,89.10
2018-06-30T22:26:43.951Z,89.20
2018-06-30T22:29:12.567Z,89.80
2018-06-30T22:31:41.140Z,89.80
2018-06-30T22:34:09.751Z,90.00
2018-06-30T22:36:38.289Z,89.90
2018-06-30T22:39:09.098Z,89.80
2018-06-30T22:44:06.319Z,89.60
2018-06-30T22:46:34.949Z,89.80
2018-06-30T22:51:31.795Z,88.80
2018-06-30T22:54:00.375Z,88.70
2018-06-30T22:56:28.944Z,88.30
2018-06-30T22:58:57.552Z,87.80
2018-06-30T23:01:26.064Z,87.50
2018-06-30T23:03:54.619Z,87.40
2018-06-30T23:06:23.175Z,87.40
2018-06-30T23:08:53.578Z,87.40
2018-06-30T23:11:22.912Z,87.20
2018-06-30T23:13:51.535Z,88.00
2018-06-30T23:16:20.088Z,87.30
2018-06-30T23:18:48.624Z,87.10
2018-06-30T23:21:17.121Z,87.00
2018-06-30T23:23:45.656Z,86.70
2018-06-30T23:28:42.458Z,86.80
2018-06-30T23:31:11.007Z,87.10
2018-06-30T23:33:39.607Z,87.00
2018-06-30T23:36:08.512Z,86.70
2018-06-30T23:38:37.284Z,87.30
2018-06-30T23:41:05.957Z,86.60
2018-06-30T23:43:34.559Z,86.90
2018-06-30T23:46:03.130Z,87.10
2018-06-30T23:48:32.696Z,87.10
2018-06-30T23:51:01.239Z,87.30
2018-06-30T23:53:29.808Z,87.80
2018-06-30T23:55:58.348Z,88.30
